sensor_id;sensor_type;location;lat;lon;timestamp;P1;durP1;ratioP1;P2;durP2;ratioP2
17147;SDS011;8689;47.364;8.796;2023-09-18T00:26:59;12.37;;;4.20;;
17147;SDS011;8689;47.364;8.796;2023-09-18T01:27:33;12.87;;;3.63;;
17147;SDS011;8689;47.364;8.796;2023-09-18T02:01:42;11.37;;;3.40;;
17147;SDS011;8689;47.364;8.796;2023-09-18T04:48:56;9.43;;;3.80;;
17147;SDS011;8689;47.364;8.796;2023-09-18T04:51:53;7.30;;;3.50;;
17147;SDS011;8689;47.364;8.796;2023-09-18T04:54:54;5.63;;;3.40;;
17147;SDS011;8689;47.364;8.796;2023-09-18T04:57:25;11.17;;;4.40;;
17147;SDS011;8689;47.364;8.796;2023-09-18T05:00:27;12.10;;;4.50;;
17147;SDS011;8689;47.364;8.796;2023-09-18T05:06:29;15.47;;;5.03;;
17147;SDS011;8689;47.364;8.796;2023-09-18T05:09:20;11.00;;;5.13;;
17147;SDS011;8689;47.364;8.796;2023-09-18T05:29:15;8.70;;;4.17;;
17147;SDS011;8689;47.364;8.796;2023-09-18T05:32:13;5.97;;;4.10;;
17147;SDS011;8689;47.364;8.796;2023-09-18T05:35:16;8.30;;;4.77;;
17147;SDS011;8689;47.364;8.796;2023-09-18T05:44:41;18.23;;;4.27;;
17147;SDS011;8689;47.364;8.796;2023-09-18T05:47:16;10.30;;;4.37;;
17147;SDS011;8689;47.364;8.796;2023-09-18T05:57:41;7.60;;;4.03;;
17147;SDS011;8689;47.364;8.796;2023-09-18T06:00:11;11.10;;;3.83;;
17147;SDS011;8689;47.364;8.796;2023-09-18T06:02:43;14.77;;;4.70;;
17147;SDS011;8689;47.364;8.796;2023-09-18T06:08:23;11.37;;;4.87;;
17147;SDS011;8689;47.364;8.796;2023-09-18T06:10:51;13.30;;;3.93;;
17147;SDS011;8689;47.364;8.796;2023-09-18T06:13:23;6.20;;;3.70;;
17147;SDS011;8689;47.364;8.796;2023-09-18T06:15:53;11.77;;;4.77;;
17147;SDS011;8689;47.364;8.796;2023-09-18T06:18:20;10.67;;;4.23;;
17147;SDS011;8689;47.364;8.796;2023-09-18T06:20:47;9.33;;;4.37;;
17147;SDS011;8689;47.364;8.796;2023-09-18T06:23:14;10.47;;;4.20;;
17147;SDS011;8689;47.364;8.796;2023-09-18T06:25:56;6.97;;;3.50;;
17147;SDS011;8689;47.364;8.796;2023-09-18T06:35:29;4.00;;;2.77;;
17147;SDS011;8689;47.364;8.796;2023-09-18T06:56:19;13.20;;;4.93;;
17147;SDS011;8689;47.364;8.796;2023-09-18T06:58:46;15.20;;;4.37;;
17147;SDS011;8689;47.364;8.796;2023-09-18T07:01:16;9.97;;;3.83;;
17147;SDS011;8689;47.364;8.796;2023-09-18T07:11:12;11.00;;;4.53;;
17147;SDS011;8689;47.364;8.796;2023-09-18T07:17:42;19.53;;;4.90;;
17147;SDS011;8689;47.364;8.796;2023-09-18T07:27:53;9.00;;;5.13;;
17147;SDS011;8689;47.364;8.796;2023-09-18T10:22:04;4.37;;;2.50;;
17147;SDS011;8689;47.364;8.796;2023-09-18T10:24:49;2.80;;;2.40;;
17147;SDS011;8689;47.364;8.796;2023-09-18T10:27:51;4.90;;;2.23;;
17147;SDS011;8689;47.364;8.796;2023-09-18T10:30:23;3.13;;;2.57;;
17147;SDS011;8689;47.364;8.796;2023-09-18T10:32:52;5.07;;;2.60;;
17147;SDS011;8689;47.364;8.796;2023-09-18T10:35:23;4.03;;;2.70;;
17147;SDS011;8689;47.364;8.796;2023-09-18T10:38:01;3.87;;;2.70;;
17147;SDS011;8689;47.364;8.796;2023-09-18T10:40:46;3.17;;;2.47;;
17147;SDS011;8689;47.364;8.796;2023-09-18T10:46:15;5.80;;;2.20;;
17147;SDS011;8689;47.364;8.796;2023-09-18T10:48:45;2.47;;;2.27;;
17147;SDS011;8689;47.364;8.796;2023-09-18T10:51:14;3.87;;;2.20;;
17147;SDS011;8689;47.364;8.796;2023-09-18T10:54:02;3.60;;;2.30;;
17147;SDS011;8689;47.364;8.796;2023-09-18T10:56:33;2.73;;;2.23;;
17147;SDS011;8689;47.364;8.796;2023-09-18T10:59:06;1.67;;;1.57;;
17147;SDS011;8689;47.364;8.796;2023-09-18T11:02:04;3.67;;;2.23;;
17147;SDS011;8689;47.364;8.796;2023-09-18T11:04:32;3.33;;;1.90;;
17147;SDS011;8689;47.364;8.796;2023-09-18T11:07:04;3.20;;;2.37;;
17147;SDS011;8689;47.364;8.796;2023-09-18T11:09:40;2.33;;;2.07;;
17147;SDS011;8689;47.364;8.796;2023-09-18T11:12:21;6.33;;;2.10;;
17147;SDS011;8689;47.364;8.796;2023-09-18T11:25:49;1.83;;;1.57;;
17147;SDS011;8689;47.364;8.796;2023-09-18T11:34:36;3.67;;;1.70;;
17147;SDS011;8689;47.364;8.796;2023-09-18T11:50:32;2.27;;;1.40;;
17147;SDS011;8689;47.364;8.796;2023-09-18T11:53:02;3.93;;;1.63;;
17147;SDS011;8689;47.364;8.796;2023-09-18T11:55:29;2.50;;;1.97;;
17147;SDS011;8689;47.364;8.796;2023-09-18T11:57:57;1.73;;;1.63;;
17147;SDS011;8689;47.364;8.796;2023-09-18T12:00:27;1.60;;;1.50;;
17147;SDS011;8689;47.364;8.796;2023-09-18T12:02:56;1.77;;;1.67;;
17147;SDS011;8689;47.364;8.796;2023-09-18T12:05:25;2.07;;;1.70;;
17147;SDS011;8689;47.364;8.796;2023-09-18T12:07:53;1.60;;;1.50;;
17147;SDS011;8689;47.364;8.796;2023-09-18T12:10:20;1.60;;;1.50;;
17147;SDS011;8689;47.364;8.796;2023-09-18T12:12:49;1.73;;;1.40;;
17147;SDS011;8689;47.364;8.796;2023-09-18T12:15:17;2.93;;;1.50;;
17147;SDS011;8689;47.364;8.796;2023-09-18T12:17:45;3.27;;;1.70;;
17147;SDS011;8689;47.364;8.796;2023-09-18T12:20:16;4.80;;;2.97;;
17147;SDS011;8689;47.364;8.796;2023-09-18T12:22:48;2.50;;;1.40;;
17147;SDS011;8689;47.364;8.796;2023-09-18T12:25:17;4.23;;;1.40;;
17147;SDS011;8689;47.364;8.796;2023-09-18T12:27:44;1.33;;;1.17;;
17147;SDS011;8689;47.364;8.796;2023-09-18T12:30:12;2.80;;;1.70;;
17147;SDS011;8689;47.364;8.796;2023-09-18T12:32:45;1.97;;;1.80;;
17147;SDS011;8689;47.364;8.796;2023-09-18T12:35:13;2.23;;;1.53;;
17147;SDS011;8689;47.364;8.796;2023-09-18T12:37:42;2.07;;;1.33;;
17147;SDS011;8689;47.364;8.796;2023-09-18T12:40:22;1.40;;;1.30;;
17147;SDS011;8689;47.364;8.796;2023-09-18T12:42:49;2.00;;;1.50;;
17147;SDS011;8689;47.364;8.796;2023-09-18T12:45:19;3.83;;;1.70;;
17147;SDS011;8689;47.364;8.796;2023-09-18T12:47:49;1.00;;;1.00;;
17147;SDS011;8689;47.364;8.796;2023-09-18T12:50:35;1.57;;;1.43;;
17147;SDS011;8689;47.364;8.796;2023-09-18T12:53:07;2.33;;;1.40;;
17147;SDS011;8689;47.364;8.796;2023-09-18T12:55:39;2.50;;;1.63;;
17147;SDS011;8689;47.364;8.796;2023-09-18T12:58:12;2.10;;;2.00;;
17147;SDS011;8689;47.364;8.796;2023-09-18T13:00:49;2.70;;;1.97;;
17147;SDS011;8689;47.364;8.796;2023-09-18T13:03:17;3.17;;;1.57;;
17147;SDS011;8689;47.364;8.796;2023-09-18T13:05:45;1.47;;;1.37;;
17147;SDS011;8689;47.364;8.796;2023-09-18T13:08:13;2.50;;;1.50;;
17147;SDS011;8689;47.364;8.796;2023-09-18T13:10:44;1.57;;;1.47;;
17147;SDS011;8689;47.364;8.796;2023-09-18T14:01:40;1.60;;;1.50;;
17147;SDS011;8689;47.364;8.796;2023-09-18T14:04:07;1.30;;;1.20;;
17147;SDS011;8689;47.364;8.796;2023-09-18T14:06:35;2.93;;;1.50;;
17147;SDS011;8689;47.364;8.796;2023-09-18T14:09:03;3.37;;;1.30;;
17147;SDS011;8689;47.364;8.796;2023-09-18T14:11:31;2.03;;;1.50;;
17147;SDS011;8689;47.364;8.796;2023-09-18T14:13:58;3.13;;;1.50;;
17147;SDS011;8689;47.364;8.796;2023-09-18T14:16:25;1.87;;;1.50;;
17147;SDS011;8689;47.364;8.796;2023-09-18T14:18:54;1.83;;;1.30;;
17147;SDS011;8689;47.364;8.796;2023-09-18T14:21:22;3.37;;;1.33;;
17147;SDS011;8689;47.364;8.796;2023-09-18T14:23:49;1.40;;;1.30;;
17147;SDS011;8689;47.364;8.796;2023-09-18T14:26:17;2.37;;;1.30;;
17147;SDS011;8689;47.364;8.796;2023-09-18T14:28:44;2.70;;;1.40;;
17147;SDS011;8689;47.364;8.796;2023-09-18T14:31:11;3.77;;;1.40;;
17147;SDS011;8689;47.364;8.796;2023-09-18T14:33:38;1.27;;;1.10;;
17147;SDS011;8689;47.364;8.796;2023-09-18T14:36:08;2.00;;;1.50;;
17147;SDS011;8689;47.364;8.796;2023-09-18T14:38:35;2.93;;;1.40;;
17147;SDS011;8689;47.364;8.796;2023-09-18T14:41:05;1.27;;;1.17;;
17147;SDS011;8689;47.364;8.796;2023-09-18T14:43:44;1.37;;;1.27;;
17147;SDS011;8689;47.364;8.796;2023-09-18T14:46:18;2.17;;;1.17;;
17147;SDS011;8689;47.364;8.796;2023-09-18T14:48:46;4.40;;;2.40;;
17147;SDS011;8689;47.364;8.796;2023-09-18T14:51:21;2.70;;;1.77;;
17147;SDS011;8689;47.364;8.796;2023-09-18T14:53:51;2.80;;;1.00;;
17147;SDS011;8689;47.364;8.796;2023-09-18T14:56:23;1.00;;;1.00;;
17147;SDS011;8689;47.364;8.796;2023-09-18T14:58:51;1.43;;;1.20;;
17147;SDS011;8689;47.364;8.796;2023-09-18T15:01:18;2.73;;;1.40;;
17147;SDS011;8689;47.364;8.796;2023-09-18T15:03:45;1.63;;;1.30;;
17147;SDS011;8689;47.364;8.796;2023-09-18T15:06:13;1.67;;;1.37;;
17147;SDS011;8689;47.364;8.796;2023-09-18T15:08:42;2.50;;;1.17;;
17147;SDS011;8689;47.364;8.796;2023-09-18T15:11:09;1.40;;;1.20;;
17147;SDS011;8689;47.364;8.796;2023-09-18T15:13:37;1.47;;;1.10;;
17147;SDS011;8689;47.364;8.796;2023-09-18T15:16:05;1.67;;;1.20;;
17147;SDS011;8689;47.364;8.796;2023-09-18T15:18:32;1.20;;;1.10;;
17147;SDS011;8689;47.364;8.796;2023-09-18T15:21:00;1.83;;;1.30;;
17147;SDS011;8689;47.364;8.796;2023-09-18T15:23:28;2.17;;;1.20;;
17147;SDS011;8689;47.364;8.796;2023-09-18T15:25:57;1.30;;;1.20;;
17147;SDS011;8689;47.364;8.796;2023-09-18T15:28:25;1.60;;;1.50;;
17147;SDS011;8689;47.364;8.796;2023-09-18T15:30:54;1.33;;;1.23;;
17147;SDS011;8689;47.364;8.796;2023-09-18T15:33:28;3.30;;;1.40;;
17147;SDS011;8689;47.364;8.796;2023-09-18T15:35:55;1.40;;;1.20;;
17147;SDS011;8689;47.364;8.796;2023-09-18T16:06:16;3.37;;;1.77;;
17147;SDS011;8689;47.364;8.796;2023-09-18T16:08:46;1.93;;;1.40;;
17147;SDS011;8689;47.364;8.796;2023-09-18T16:11:14;1.30;;;1.20;;
17147;SDS011;8689;47.364;8.796;2023-09-18T16:13:42;1.50;;;1.40;;
17147;SDS011;8689;47.364;8.796;2023-09-18T16:16:18;1.57;;;1.47;;
17147;SDS011;8689;47.364;8.796;2023-09-18T16:19:00;2.57;;;1.37;;
17147;SDS011;8689;47.364;8.796;2023-09-18T16:21:28;1.53;;;1.43;;
17147;SDS011;8689;47.364;8.796;2023-09-18T16:27:06;1.37;;;1.27;;
17147;SDS011;8689;47.364;8.796;2023-09-18T16:29:47;3.17;;;1.33;;
17147;SDS011;8689;47.364;8.796;2023-09-18T16:32:15;2.33;;;1.20;;
17147;SDS011;8689;47.364;8.796;2023-09-18T19:15:17;2.17;;;1.97;;
